createdAt,value
2017-11-26T00:01:24.522Z,8.10
2017-11-26T00:03:52.798Z,7.23
2017-11-26T00:06:21.845Z,6.10
2017-11-26T00:08:50.129Z,7.50
2017-11-26T00:11:18.432Z,6.87
2017-11-26T00:13:48.178Z,6.47
2017-11-26T00:16:16.422Z,6.70
2017-11-26T00:18:44.729Z,6.83
2017-11-26T00:21:13.089Z,8.00
2017-11-26T00:23:41.318Z,8.47
2017-11-26T00:26:09.576Z,7.07
2017-11-26T00:28:38.654Z,6.50
2017-11-26T00:31:06.915Z,7.13
2017-11-26T00:33:35.180Z,7.70
2017-11-26T00:36:04.308Z,7.47
2017-11-26T00:38:34.346Z,7.00
2017-11-26T00:41:02.663Z,7.00
2017-11-26T00:43:30.941Z,7.60
2017-11-26T00:45:59.213Z,8.10
2017-11-26T00:48:27.468Z,7.50
2017-11-26T00:50:55.735Z,7.20
2017-11-26T00:53:24.006Z,7.70
2017-11-26T00:55:52.268Z,7.47
2017-11-26T00:58:20.545Z,8.00
2017-11-26T01:00:50.559Z,7.73
2017-11-26T01:03:20.582Z,7.50
2017-11-26T01:05:48.885Z,7.90
2017-11-26T01:08:17.328Z,7.47
2017-11-26T01:10:45.624Z,8.23
2017-11-26T01:13:14.320Z,9.20
2017-11-26T01:15:42.627Z,8.30
2017-11-26T01:18:10.929Z,8.27
2017-11-26T01:20:39.191Z,8.63
2017-11-26T01:23:07.591Z,8.23
2017-11-26T01:25:35.874Z,8.27
2017-11-26T01:28:04.146Z,7.80
2017-11-26T01:30:32.378Z,8.60
2017-11-26T01:33:00.769Z,8.40
2017-11-26T01:35:29.046Z,8.40
2017-11-26T01:37:57.306Z,8.23
2017-11-26T01:40:25.578Z,7.03
2017-11-26T01:42:54.005Z,8.80
2017-11-26T01:45:22.485Z,8.97
2017-11-26T01:47:50.720Z,8.10
2017-11-26T01:50:19.219Z,8.03
2017-11-26T01:52:47.642Z,7.97
2017-11-26T01:55:16.721Z,8.43
2017-11-26T01:57:45.182Z,7.20
2017-11-26T02:00:13.463Z,8.60
2017-11-26T02:02:41.727Z,7.50
2017-11-26T02:05:10.025Z,8.60
2017-11-26T02:07:39.079Z,7.60
2017-11-26T02:10:07.327Z,8.20
2017-11-26T02:12:35.651Z,7.87
2017-11-26T02:15:05.538Z,7.80
2017-11-26T02:17:33.919Z,8.87
2017-11-26T02:20:02.419Z,7.40
2017-11-26T02:22:30.761Z,7.03
2017-11-26T02:25:00.310Z,7.40
2017-11-26T02:27:28.581Z,7.43
2017-11-26T02:29:56.918Z,7.17
2017-11-26T02:32:36.972Z,7.10
2017-11-26T02:35:17.103Z,6.90
2017-11-26T02:37:47.005Z,6.53
2017-11-26T02:40:15.809Z,6.63
2017-11-26T02:42:44.823Z,6.47
2017-11-26T02:45:13.198Z,6.50
2017-11-26T02:47:42.197Z,7.10
2017-11-26T02:50:10.477Z,5.47
2017-11-26T02:52:38.763Z,6.43
2017-11-26T02:55:07.045Z,5.87
2017-11-26T02:57:35.342Z,6.03
2017-11-26T03:00:03.608Z,6.30
2017-11-26T03:02:33.120Z,7.00
2017-11-26T03:05:01.472Z,6.07
2017-11-26T03:07:29.788Z,6.77
2017-11-26T03:09:58.282Z,8.03
2017-11-26T03:12:26.545Z,6.50
2017-11-26T03:14:54.863Z,7.07
2017-11-26T03:17:23.108Z,7.27
2017-11-26T03:19:52.349Z,7.23
2017-11-26T03:22:20.645Z,6.90
2017-11-26T03:24:49.008Z,7.23
2017-11-26T03:27:17.275Z,6.23
2017-11-26T03:29:45.552Z,6.50
2017-11-26T03:32:13.844Z,6.80
2017-11-26T03:34:42.120Z,6.37
2017-11-26T03:37:10.369Z,7.20
2017-11-26T03:39:38.668Z,6.33
2017-11-26T03:42:06.931Z,7.27
2017-11-26T03:44:35.186Z,6.00
2017-11-26T03:47:04.244Z,6.70
2017-11-26T03:49:34.171Z,6.77
2017-11-26T03:52:02.577Z,6.03
2017-11-26T03:54:30.849Z,6.43
2017-11-26T03:56:59.974Z,6.93
2017-11-26T03:59:28.249Z,5.80
2017-11-26T04:01:56.522Z,6.27
2017-11-26T04:04:24.938Z,5.97
2017-11-26T04:06:54.057Z,6.50
2017-11-26T04:09:22.356Z,5.50
2017-11-26T04:11:50.732Z,5.70
2017-11-26T04:14:19.033Z,6.10
2017-11-26T04:16:47.437Z,5.60
2017-11-26T04:19:15.708Z,5.20
2017-11-26T04:21:43.976Z,5.73
2017-11-26T04:24:13.110Z,5.77
2017-11-26T04:26:42.159Z,5.73
2017-11-26T04:29:10.452Z,4.90
2017-11-26T04:31:38.776Z,5.43
2017-11-26T04:34:07.880Z,5.07
2017-11-26T04:36:36.875Z,5.53
2017-11-26T04:39:05.158Z,5.10
2017-11-26T04:41:33.461Z,5.03
2017-11-26T04:44:01.724Z,4.90
2017-11-26T04:46:30.889Z,5.20
2017-11-26T04:48:59.158Z,4.33
2017-11-26T04:51:28.901Z,4.57
2017-11-26T04:53:57.194Z,5.10
2017-11-26T04:56:25.464Z,4.97
2017-11-26T04:58:53.730Z,4.70
2017-11-26T05:01:22.061Z,5.10
2017-11-26T05:03:50.468Z,4.67
2017-11-26T05:06:18.706Z,4.40
2017-11-26T05:08:47.025Z,5.13
2017-11-26T05:11:16.128Z,4.70
2017-11-26T05:13:44.437Z,4.00
2017-11-26T05:16:12.713Z,4.37
2017-11-26T05:18:40.978Z,4.27
2017-11-26T05:21:09.226Z,3.90
2017-11-26T05:23:37.531Z,4.20
2017-11-26T05:26:05.791Z,4.10
2017-11-26T05:28:34.061Z,4.40
2017-11-26T05:31:02.334Z,3.93
2017-11-26T05:33:30.662Z,5.13
2017-11-26T05:35:59.079Z,4.23
2017-11-26T05:38:28.143Z,5.50
2017-11-26T05:40:56.699Z,3.90
2017-11-26T05:43:24.946Z,4.50
2017-11-26T05:45:53.177Z,5.23
2017-11-26T05:48:21.688Z,4.30
2017-11-26T05:50:49.990Z,4.87
2017-11-26T05:53:18.281Z,4.63
2017-11-26T05:55:46.569Z,5.40
2017-11-26T05:58:14.846Z,5.17
2017-11-26T06:00:43.154Z,4.57
2017-11-26T06:03:11.548Z,4.40
2017-11-26T06:05:39.879Z,4.10
2017-11-26T06:08:08.118Z,4.87
2017-11-26T06:10:37.307Z,4.37
2017-11-26T06:13:07.113Z,4.67
2017-11-26T06:15:36.376Z,5.90
2017-11-26T06:18:04.641Z,5.00
2017-11-26T06:20:32.924Z,4.70
2017-11-26T06:23:01.186Z,5.20
2017-11-26T06:25:29.529Z,5.00
2017-11-26T06:27:58.108Z,5.67
2017-11-26T06:30:26.345Z,5.27
2017-11-26T06:32:54.647Z,4.70
2017-11-26T06:35:22.958Z,5.80
2017-11-26T06:37:52.116Z,5.57
2017-11-26T06:40:20.396Z,5.40
2017-11-26T06:42:48.646Z,5.20
2017-11-26T06:45:16.965Z,5.10
2017-11-26T06:47:46.148Z,6.10
2017-11-26T06:50:14.440Z,6.00
2017-11-26T06:52:42.801Z,5.10
2017-11-26T06:55:11.127Z,5.30
2017-11-26T06:57:40.191Z,5.87
2017-11-26T07:00:09.240Z,6.00
2017-11-26T07:02:38.892Z,5.60
2017-11-26T07:05:07.590Z,5.70
2017-11-26T07:07:36.578Z,7.60
2017-11-26T07:10:05.950Z,5.13
2017-11-26T07:12:34.836Z,6.00
2017-11-26T07:15:03.089Z,5.60
2017-11-26T07:17:31.415Z,4.83
2017-11-26T07:20:00.499Z,4.70
2017-11-26T07:22:31.723Z,5.50
2017-11-26T07:25:00.017Z,5.30
2017-11-26T07:27:28.316Z,5.67
2017-11-26T07:29:57.662Z,4.70
2017-11-26T07:32:25.898Z,4.70
2017-11-26T07:34:54.226Z,5.40
2017-11-26T07:37:22.510Z,4.73
2017-11-26T07:39:51.140Z,4.67
2017-11-26T07:42:19.416Z,4.30
2017-11-26T07:44:48.542Z,6.00
2017-11-26T07:47:16.885Z,4.50
2017-11-26T07:49:46.467Z,4.30
2017-11-26T07:52:14.865Z,5.20
2017-11-26T07:54:47.527Z,4.80
2017-11-26T07:57:16.010Z,4.77
2017-11-26T07:59:45.140Z,5.40
2017-11-26T08:02:13.520Z,4.40
2017-11-26T08:04:41.917Z,4.73
2017-11-26T08:07:10.259Z,4.87
2017-11-26T08:09:38.512Z,4.20
2017-11-26T08:12:07.679Z,5.47
2017-11-26T08:14:36.818Z,4.33
2017-11-26T08:17:05.068Z,4.37
2017-11-26T08:19:33.354Z,4.33
2017-11-26T08:22:01.841Z,4.77
2017-11-26T08:24:30.064Z,3.83
2017-11-26T08:26:58.326Z,4.17
2017-11-26T08:29:27.370Z,4.63
2017-11-26T08:31:55.631Z,4.00
2017-11-26T08:34:23.911Z,5.67
2017-11-26T08:36:52.725Z,4.03
2017-11-26T08:39:21.011Z,4.30
2017-11-26T08:41:49.256Z,6.93
2017-11-26T08:44:17.784Z,4.50
2017-11-26T08:46:46.063Z,4.20
2017-11-26T08:49:14.323Z,5.60
2017-11-26T08:51:42.608Z,4.23
2017-11-26T08:54:10.854Z,4.20
2017-11-26T08:56:40.068Z,4.97
2017-11-26T08:59:08.370Z,4.50
2017-11-26T09:01:37.385Z,5.53
2017-11-26T09:04:05.626Z,4.40
2017-11-26T09:06:33.991Z,4.77
2017-11-26T09:09:03.474Z,4.73
2017-11-26T09:11:31.724Z,5.97
2017-11-26T09:13:59.974Z,5.50
2017-11-26T09:16:28.662Z,4.47
2017-11-26T09:18:56.921Z,4.73
2017-11-26T09:21:25.954Z,5.00
2017-11-26T09:23:54.378Z,4.27
2017-11-26T09:26:22.705Z,5.33
2017-11-26T09:28:50.992Z,4.77
2017-11-26T09:31:20.035Z,5.07
2017-11-26T09:33:48.441Z,4.70
2017-11-26T09:36:16.697Z,4.00
2017-11-26T09:38:44.983Z,4.17
2017-11-26T09:41:13.294Z,5.10
2017-11-26T09:43:41.527Z,5.00
2017-11-26T09:46:09.817Z,4.60
2017-11-26T09:48:38.099Z,4.67
2017-11-26T09:51:06.355Z,5.10
2017-11-26T09:53:35.395Z,5.30
2017-11-26T09:56:03.925Z,4.87
2017-11-26T09:58:32.192Z,4.67
2017-11-26T10:01:01.314Z,4.67
2017-11-26T10:03:29.765Z,4.97
2017-11-26T10:05:58.018Z,4.70
2017-11-26T10:08:26.286Z,5.20
2017-11-26T10:10:54.587Z,5.20
2017-11-26T10:13:23.699Z,4.70
2017-11-26T10:15:51.954Z,4.77
2017-11-26T10:18:20.230Z,4.93
2017-11-26T10:20:49.464Z,4.40
2017-11-26T10:23:18.495Z,5.07
2017-11-26T10:25:46.785Z,4.87
2017-11-26T10:28:15.028Z,4.60
2017-11-26T10:30:44.113Z,4.30
2017-11-26T10:33:12.410Z,4.10
2017-11-26T10:35:41.572Z,6.23
2017-11-26T10:38:09.827Z,4.13
2017-11-26T10:40:38.942Z,4.10
2017-11-26T10:43:08.064Z,4.43
2017-11-26T10:45:36.354Z,5.40
2017-11-26T10:48:04.695Z,4.30
2017-11-26T10:50:33.231Z,4.43
2017-11-26T10:53:01.658Z,4.53
2017-11-26T10:55:30.018Z,4.50
2017-11-26T10:57:58.270Z,3.80
2017-11-26T11:00:26.537Z,3.83
2017-11-26T11:02:57.430Z,4.27
2017-11-26T11:05:25.734Z,4.00
2017-11-26T11:07:54.878Z,4.27
2017-11-26T11:10:23.212Z,5.10
2017-11-26T11:12:51.482Z,3.90
2017-11-26T11:15:20.645Z,4.17
2017-11-26T11:17:48.925Z,4.43
2017-11-26T11:20:18.016Z,4.17
2017-11-26T11:22:47.926Z,4.10
2017-11-26T11:25:16.199Z,11.40
2017-11-26T11:27:44.464Z,3.87
2017-11-26T11:30:12.791Z,4.00
2017-11-26T11:32:42.257Z,4.20
2017-11-26T11:35:10.516Z,3.80
2017-11-26T11:37:38.776Z,4.67
2017-11-26T11:40:08.019Z,3.43
2017-11-26T11:42:37.238Z,4.23
2017-11-26T11:45:05.633Z,4.70
2017-11-26T11:47:34.967Z,3.97
2017-11-26T11:50:03.222Z,4.17
2017-11-26T11:52:31.531Z,3.97
2017-11-26T11:54:59.860Z,3.90
2017-11-26T11:57:28.138Z,4.00
2017-11-26T11:59:56.436Z,4.63
2017-11-26T12:02:24.730Z,3.83
2017-11-26T12:04:53.041Z,4.80
2017-11-26T12:07:21.422Z,4.30
2017-11-26T12:09:50.512Z,4.10
2017-11-26T12:12:18.775Z,4.23
2017-11-26T12:14:47.934Z,4.40
2017-11-26T12:17:16.215Z,4.30
2017-11-26T12:19:44.630Z,3.70
2017-11-26T12:22:13.108Z,4.10
2017-11-26T12:24:43.153Z,4.70
2017-11-26T12:27:11.434Z,2.90
2017-11-26T12:29:40.456Z,3.93
2017-11-26T12:32:08.765Z,4.50
2017-11-26T12:34:37.050Z,3.47
2017-11-26T12:37:05.431Z,3.00
2017-11-26T12:39:33.715Z,3.60
2017-11-26T12:42:02.890Z,3.50
2017-11-26T12:44:31.206Z,3.80
2017-11-26T12:47:00.376Z,4.50
2017-11-26T12:49:28.641Z,4.03
2017-11-26T12:51:57.904Z,3.77
2017-11-26T12:54:27.224Z,5.50
2017-11-26T12:56:55.523Z,4.07
2017-11-26T12:59:23.817Z,4.30
2017-11-26T13:01:53.108Z,3.23
2017-11-26T13:04:21.406Z,4.13
2017-11-26T13:06:49.687Z,3.50
2017-11-26T13:09:17.973Z,3.80
2017-11-26T13:11:47.111Z,4.10
2017-11-26T13:14:15.371Z,3.17
2017-11-26T13:16:43.713Z,4.07
2017-11-26T13:19:12.075Z,4.27
2017-11-26T13:21:41.345Z,4.20
2017-11-26T13:24:09.621Z,3.60
2017-11-26T13:26:38.124Z,4.33
2017-11-26T13:29:06.401Z,4.27
2017-11-26T13:31:35.496Z,4.00
2017-11-26T13:34:04.565Z,4.10
2017-11-26T13:36:33.674Z,4.17
2017-11-26T13:39:02.914Z,3.57
2017-11-26T13:41:31.236Z,3.50
2017-11-26T13:44:00.312Z,3.70
2017-11-26T13:46:29.561Z,4.43
2017-11-26T13:48:58.616Z,4.83
2017-11-26T13:51:27.737Z,4.37
2017-11-26T13:53:56.144Z,4.80
2017-11-26T13:56:24.446Z,4.10
2017-11-26T13:58:52.702Z,4.17
2017-11-26T14:01:21.001Z,4.33
2017-11-26T14:03:49.498Z,3.97
2017-11-26T14:06:17.919Z,4.40
2017-11-26T14:08:47.206Z,4.67
2017-11-26T14:11:15.542Z,10.63
2017-11-26T14:13:44.730Z,5.10
2017-11-26T14:16:13.899Z,4.87
2017-11-26T14:18:42.846Z,5.17
2017-11-26T14:21:11.163Z,4.70
2017-11-26T14:23:40.332Z,5.73
2017-11-26T14:26:08.665Z,4.27
2017-11-26T14:28:36.973Z,5.27
2017-11-26T14:31:05.292Z,4.50
2017-11-26T14:33:33.661Z,4.00
2017-11-26T14:36:02.737Z,6.17
2017-11-26T14:38:31.223Z,5.40
2017-11-26T14:41:00.552Z,4.57
2017-11-26T14:43:28.825Z,4.57
2017-11-26T14:45:57.122Z,5.40
2017-11-26T14:48:26.264Z,4.20
2017-11-26T14:50:55.305Z,4.23
2017-11-26T14:53:25.071Z,4.60
2017-11-26T14:55:53.435Z,5.33
2017-11-26T14:58:21.733Z,4.47
2017-11-26T15:00:50.898Z,4.17
2017-11-26T15:03:19.233Z,4.37
2017-11-26T15:05:48.502Z,3.43
2017-11-26T15:08:17.767Z,4.63
2017-11-26T15:10:46.066Z,4.50
2017-11-26T15:13:14.613Z,5.00
2017-11-26T15:15:42.971Z,4.93
2017-11-26T15:18:12.099Z,4.50
2017-11-26T15:20:40.411Z,4.23
2017-11-26T15:23:08.696Z,3.80
2017-11-26T15:25:37.185Z,4.23
2017-11-26T15:28:07.288Z,5.50
2017-11-26T15:30:35.652Z,4.53
2017-11-26T15:33:03.988Z,4.33
2017-11-26T15:35:32.311Z,4.60
2017-11-26T15:38:01.727Z,4.33
2017-11-26T15:40:30.024Z,4.67
2017-11-26T15:42:58.330Z,4.67
2017-11-26T15:45:26.610Z,4.37
2017-11-26T15:47:54.942Z,4.40
2017-11-26T15:50:23.217Z,7.70
2017-11-26T15:52:51.525Z,5.07
2017-11-26T15:55:20.577Z,4.60
2017-11-26T15:57:48.864Z,4.97
2017-11-26T16:00:21.474Z,5.43
2017-11-26T16:02:49.741Z,5.63
2017-11-26T16:05:18.167Z,5.10
2017-11-26T16:07:49.411Z,5.30
2017-11-26T16:10:17.699Z,6.00
2017-11-26T16:12:46.006Z,5.53
2017-11-26T16:15:15.514Z,5.80
2017-11-26T16:17:43.852Z,6.03
2017-11-26T16:20:13.708Z,5.93
2017-11-26T16:22:42.017Z,5.43
2017-11-26T16:25:10.306Z,6.37
2017-11-26T16:27:38.591Z,5.30
2017-11-26T16:30:06.895Z,4.80
2017-11-26T16:32:35.965Z,5.07
2017-11-26T16:35:04.293Z,5.90
2017-11-26T16:37:32.776Z,7.03
2017-11-26T16:40:01.054Z,6.60
2017-11-26T16:42:30.230Z,6.00
2017-11-26T16:44:58.489Z,5.73
2017-11-26T16:47:26.841Z,5.37
2017-11-26T16:49:55.274Z,5.80
2017-11-26T16:52:23.607Z,6.00
2017-11-26T16:54:51.969Z,6.03
2017-11-26T16:57:20.283Z,5.57
2017-11-26T16:59:52.307Z,5.53
2017-11-26T17:02:22.323Z,5.77
2017-11-26T17:04:50.662Z,6.67
2017-11-26T17:07:18.973Z,5.00
2017-11-26T17:09:48.157Z,5.53
2017-11-26T17:12:16.485Z,6.00
2017-11-26T17:14:45.741Z,6.10
2017-11-26T17:17:14.027Z,7.87
2017-11-26T17:19:43.312Z,7.40
2017-11-26T17:22:11.583Z,8.50
2017-11-26T17:24:39.865Z,7.10
2017-11-26T17:27:09.559Z,7.72
2017-11-26T17:29:38.734Z,6.07
2017-11-26T17:32:08.287Z,5.77
2017-11-26T17:34:39.077Z,5.30
2017-11-26T17:37:07.345Z,5.50
2017-11-26T17:39:35.633Z,6.10
2017-11-26T17:42:03.903Z,4.67
2017-11-26T17:44:35.768Z,5.70
2017-11-26T17:47:04.061Z,4.90
2017-11-26T17:49:33.144Z,5.17
2017-11-26T17:52:01.551Z,5.03
2017-11-26T17:54:30.633Z,5.77
2017-11-26T17:56:58.927Z,5.43
2017-11-26T17:59:27.288Z,5.87
2017-11-26T18:01:55.549Z,5.47
2017-11-26T18:04:23.825Z,5.30
2017-11-26T18:06:52.241Z,5.80
2017-11-26T18:09:20.531Z,5.80
2017-11-26T18:11:48.830Z,5.27
2017-11-26T18:14:17.091Z,5.07
2017-11-26T18:16:46.277Z,5.83
2017-11-26T18:19:15.353Z,5.60
2017-11-26T18:21:43.620Z,5.60
2017-11-26T18:24:11.974Z,5.73
2017-11-26T18:26:40.266Z,5.60
2017-11-26T18:29:08.565Z,5.50
2017-11-26T18:31:36.825Z,6.07
2017-11-26T18:34:06.091Z,5.60
2017-11-26T18:36:34.427Z,6.13
2017-11-26T18:39:03.520Z,5.97
2017-11-26T18:41:32.595Z,6.23
2017-11-26T18:44:00.929Z,5.87
2017-11-26T18:46:29.176Z,5.73
2017-11-26T18:48:58.239Z,5.70
2017-11-26T18:51:26.514Z,5.60
2017-11-26T18:53:54.895Z,5.60
2017-11-26T18:56:23.159Z,5.27
2017-11-26T18:58:51.426Z,5.67
2017-11-26T19:01:19.686Z,6.20
2017-11-26T19:03:47.946Z,5.87
2017-11-26T19:06:16.224Z,5.47
2017-11-26T19:08:44.776Z,5.87
2017-11-26T19:11:13.026Z,5.40
2017-11-26T19:13:42.310Z,6.90
2017-11-26T19:16:10.591Z,6.27
2017-11-26T19:18:38.873Z,5.87
2017-11-26T19:21:08.139Z,6.60
2017-11-26T19:23:36.446Z,5.57
2017-11-26T19:26:05.667Z,7.00
2017-11-26T19:28:33.978Z,6.70
2017-11-26T19:31:02.990Z,6.80
2017-11-26T19:33:31.425Z,6.60
2017-11-26T19:35:59.704Z,6.27
2017-11-26T19:38:29.010Z,6.70
2017-11-26T19:40:58.811Z,7.00
2017-11-26T19:43:27.109Z,6.70
2017-11-26T19:45:56.245Z,7.20
2017-11-26T19:48:24.568Z,6.63
2017-11-26T19:50:52.877Z,7.67
2017-11-26T19:53:21.337Z,12.43
2017-11-26T19:55:50.399Z,7.20
2017-11-26T19:58:18.755Z,6.63
2017-11-26T20:00:47.914Z,6.27
2017-11-26T20:03:16.204Z,6.83
2017-11-26T20:05:44.497Z,6.30
2017-11-26T20:08:13.797Z,7.10
2017-11-26T20:10:42.067Z,6.90
2017-11-26T20:13:11.240Z,6.27
2017-11-26T20:15:40.410Z,6.87
2017-11-26T20:18:08.767Z,6.13
2017-11-26T20:20:37.075Z,7.20
2017-11-26T20:23:05.411Z,7.83
2017-11-26T20:25:34.676Z,6.87
2017-11-26T20:28:03.758Z,7.17
2017-11-26T20:30:32.863Z,6.67
2017-11-26T20:33:01.319Z,7.03
2017-11-26T20:35:30.458Z,7.00
2017-11-26T20:37:58.729Z,7.50
2017-11-26T20:40:27.035Z,7.30
2017-11-26T20:42:55.483Z,7.50
2017-11-26T20:45:24.508Z,7.80
2017-11-26T20:47:53.023Z,7.03
2017-11-26T20:50:21.833Z,7.60
2017-11-26T20:52:50.089Z,6.97
2017-11-26T20:55:19.700Z,7.00
2017-11-26T20:57:48.044Z,7.57
2017-11-26T21:00:16.311Z,6.40
2017-11-26T21:02:45.869Z,7.40
2017-11-26T21:05:15.473Z,7.43
2017-11-26T21:07:44.558Z,7.63
2017-11-26T21:10:16.643Z,8.33
2017-11-26T21:12:45.439Z,7.17
2017-11-26T21:15:14.201Z,6.90
2017-11-26T21:17:43.069Z,5.60
2017-11-26T21:20:12.594Z,5.27
2017-11-26T21:22:42.322Z,5.90
2017-11-26T21:25:11.410Z,5.03
2017-11-26T21:27:40.256Z,6.50
2017-11-26T21:30:09.188Z,5.20
2017-11-26T21:32:38.296Z,6.10
2017-11-26T21:35:07.176Z,6.70
2017-11-26T21:37:36.138Z,6.27
2017-11-26T21:40:05.770Z,6.90
2017-11-26T21:42:38.152Z,7.30
2017-11-26T21:45:06.849Z,7.23
2017-11-26T21:47:35.969Z,7.67
2017-11-26T21:50:04.920Z,7.80
2017-11-26T21:52:35.479Z,7.70
2017-11-26T21:55:04.364Z,7.40
2017-11-26T21:57:33.038Z,7.80
2017-11-26T22:00:01.781Z,7.50
2017-11-26T22:02:30.826Z,8.17
2017-11-26T22:05:02.068Z,8.33
2017-11-26T22:07:30.847Z,6.63
2017-11-26T22:10:06.386Z,8.20
2017-11-26T22:12:36.049Z,7.37
2017-11-26T22:15:04.335Z,7.50
2017-11-26T22:17:32.957Z,6.73
2017-11-26T22:20:01.289Z,7.10
2017-11-26T22:22:29.549Z,7.80
2017-11-26T22:24:57.892Z,7.40
2017-11-26T22:27:26.455Z,7.20
2017-11-26T22:29:54.681Z,7.40
2017-11-26T22:32:22.947Z,6.87
2017-11-26T22:34:52.213Z,6.87
2017-11-26T22:37:20.496Z,7.07
2017-11-26T22:39:49.639Z,6.30
2017-11-26T22:42:17.979Z,5.87
2017-11-26T22:44:46.306Z,7.30
2017-11-26T22:47:14.576Z,6.40
2017-11-26T22:49:42.853Z,6.63
2017-11-26T22:52:11.127Z,6.60
2017-11-26T22:54:39.385Z,6.40
2017-11-26T22:57:08.401Z,6.93
2017-11-26T22:59:37.666Z,6.57
2017-11-26T23:02:05.909Z,6.33
2017-11-26T23:04:42.736Z,5.97
2017-11-26T23:07:10.993Z,6.03
2017-11-26T23:09:39.246Z,4.83
2017-11-26T23:12:07.699Z,6.40
2017-11-26T23:14:36.050Z,5.03
2017-11-26T23:17:04.610Z,4.90
2017-11-26T23:19:33.671Z,5.70
2017-11-26T23:22:01.940Z,6.07
2017-11-26T23:24:30.186Z,5.10
2017-11-26T23:26:58.454Z,5.80
2017-11-26T23:29:26.758Z,4.10
2017-11-26T23:31:55.021Z,6.40
2017-11-26T23:34:23.262Z,4.97
2017-11-26T23:36:52.749Z,4.90
2017-11-26T23:39:21.034Z,4.20
2017-11-26T23:41:50.042Z,5.03
2017-11-26T23:44:19.104Z,4.63
2017-11-26T23:46:47.368Z,4.57
2017-11-26T23:49:15.654Z,5.50
2017-11-26T23:51:43.909Z,4.67
2017-11-26T23:54:12.223Z,5.93
2017-11-26T23:56:40.621Z,4.70
2017-11-26T23:59:08.869Z,4.93
